sensor_id;sensor_type;location;lat;lon;timestamp;P1;durP1;ratioP1;P2;durP2;ratioP2
24857;SDS011;12935;50.782;6.074;2023-08-07T00:01:07;23.70;;;7.27;;
24857;SDS011;12935;50.782;6.074;2023-08-07T00:03:32;19.97;;;7.40;;
24857;SDS011;12935;50.782;6.074;2023-08-07T00:05:58;14.53;;;6.80;;
24857;SDS011;12935;50.782;6.074;2023-08-07T00:08:23;35.03;;;7.83;;
24857;SDS011;12935;50.782;6.074;2023-08-07T00:10:48;40.13;;;10.10;;
24857;SDS011;12935;50.782;6.074;2023-08-07T00:13:14;27.77;;;8.40;;
24857;SDS011;12935;50.782;6.074;2023-08-07T00:15:39;38.83;;;10.37;;
24857;SDS011;12935;50.782;6.074;2023-08-07T00:18:05;47.50;;;9.87;;
24857;SDS011;12935;50.782;6.074;2023-08-07T00:20:30;18.77;;;7.67;;
24857;SDS011;12935;50.782;6.074;2023-08-07T00:22:55;18.77;;;6.27;;
24857;SDS011;12935;50.782;6.074;2023-08-07T00:25:20;30.07;;;7.87;;
24857;SDS011;12935;50.782;6.074;2023-08-07T00:27:46;14.90;;;6.30;;
24857;SDS011;12935;50.782;6.074;2023-08-07T00:30:11;21.83;;;7.23;;
24857;SDS011;12935;50.782;6.074;2023-08-07T00:32:37;23.40;;;7.40;;
24857;SDS011;12935;50.782;6.074;2023-08-07T00:35:02;35.00;;;8.73;;
24857;SDS011;12935;50.782;6.074;2023-08-07T00:37:29;16.33;;;7.73;;
24857;SDS011;12935;50.782;6.074;2023-08-07T00:39:55;42.90;;;10.80;;
24857;SDS011;12935;50.782;6.074;2023-08-07T00:42:20;24.17;;;7.63;;
24857;SDS011;12935;50.782;6.074;2023-08-07T00:44:45;31.33;;;8.50;;
24857;SDS011;12935;50.782;6.074;2023-08-07T00:47:10;50.30;;;10.93;;
24857;SDS011;12935;50.782;6.074;2023-08-07T00:49:37;27.70;;;9.10;;
24857;SDS011;12935;50.782;6.074;2023-08-07T00:52:03;28.70;;;7.83;;
24857;SDS011;12935;50.782;6.074;2023-08-07T00:54:29;20.03;;;8.50;;
24857;SDS011;12935;50.782;6.074;2023-08-07T00:56:56;19.33;;;6.83;;
24857;SDS011;12935;50.782;6.074;2023-08-07T00:59:33;25.20;;;7.93;;
24857;SDS011;12935;50.782;6.074;2023-08-07T01:01:59;28.03;;;8.57;;
24857;SDS011;12935;50.782;6.074;2023-08-07T01:04:24;20.43;;;6.93;;
24857;SDS011;12935;50.782;6.074;2023-08-07T01:06:49;24.67;;;6.50;;
24857;SDS011;12935;50.782;6.074;2023-08-07T01:09:14;42.00;;;10.00;;
24857;SDS011;12935;50.782;6.074;2023-08-07T01:14:40;15.47;;;6.40;;
24857;SDS011;12935;50.782;6.074;2023-08-07T01:17:14;47.23;;;10.30;;
24857;SDS011;12935;50.782;6.074;2023-08-07T01:19:41;19.03;;;6.57;;
24857;SDS011;12935;50.782;6.074;2023-08-07T01:24:33;20.30;;;7.27;;
24857;SDS011;12935;50.782;6.074;2023-08-07T01:27:07;34.50;;;9.03;;
24857;SDS011;12935;50.782;6.074;2023-08-07T01:29:47;36.67;;;8.87;;
24857;SDS011;12935;50.782;6.074;2023-08-07T01:32:15;44.90;;;9.77;;
24857;SDS011;12935;50.782;6.074;2023-08-07T01:34:46;16.13;;;6.10;;
24857;SDS011;12935;50.782;6.074;2023-08-07T01:37:13;34.07;;;8.57;;
24857;SDS011;12935;50.782;6.074;2023-08-07T01:39:38;18.00;;;6.63;;
24857;SDS011;12935;50.782;6.074;2023-08-07T01:42:06;54.40;;;11.00;;
24857;SDS011;12935;50.782;6.074;2023-08-07T01:44:32;16.77;;;6.00;;
24857;SDS011;12935;50.782;6.074;2023-08-07T01:46:57;26.40;;;7.67;;
24857;SDS011;12935;50.782;6.074;2023-08-07T01:49:23;21.83;;;8.37;;
24857;SDS011;12935;50.782;6.074;2023-08-07T01:51:48;20.07;;;8.53;;
24857;SDS011;12935;50.782;6.074;2023-08-07T01:54:13;20.43;;;6.97;;
24857;SDS011;12935;50.782;6.074;2023-08-07T01:56:39;21.57;;;6.97;;
24857;SDS011;12935;50.782;6.074;2023-08-07T01:59:05;52.70;;;11.97;;
24857;SDS011;12935;50.782;6.074;2023-08-07T02:01:30;71.97;;;8.43;;
24857;SDS011;12935;50.782;6.074;2023-08-07T02:03:55;46.73;;;10.33;;
24857;SDS011;12935;50.782;6.074;2023-08-07T02:06:20;22.30;;;7.63;;
24857;SDS011;12935;50.782;6.074;2023-08-07T02:08:46;21.77;;;7.60;;
24857;SDS011;12935;50.782;6.074;2023-08-07T02:11:12;47.23;;;10.83;;
24857;SDS011;12935;50.782;6.074;2023-08-07T02:13:38;35.23;;;10.43;;
24857;SDS011;12935;50.782;6.074;2023-08-07T02:16:03;45.93;;;10.93;;
24857;SDS011;12935;50.782;6.074;2023-08-07T02:18:28;27.13;;;7.50;;
24857;SDS011;12935;50.782;6.074;2023-08-07T02:20:54;23.27;;;7.20;;
24857;SDS011;12935;50.782;6.074;2023-08-07T02:23:19;22.93;;;8.10;;
24857;SDS011;12935;50.782;6.074;2023-08-07T02:25:44;13.97;;;6.90;;
24857;SDS011;12935;50.782;6.074;2023-08-07T02:28:10;83.90;;;12.83;;
24857;SDS011;12935;50.782;6.074;2023-08-07T02:30:36;19.13;;;7.40;;
24857;SDS011;12935;50.782;6.074;2023-08-07T02:33:01;50.67;;;9.80;;
24857;SDS011;12935;50.782;6.074;2023-08-07T02:35:26;23.57;;;7.40;;
24857;SDS011;12935;50.782;6.074;2023-08-07T02:37:51;21.97;;;9.37;;
24857;SDS011;12935;50.782;6.074;2023-08-07T02:40:17;28.20;;;7.93;;
24857;SDS011;12935;50.782;6.074;2023-08-07T02:42:44;17.50;;;7.03;;
24857;SDS011;12935;50.782;6.074;2023-08-07T02:45:09;50.90;;;10.93;;
24857;SDS011;12935;50.782;6.074;2023-08-07T02:47:34;24.50;;;7.80;;
24857;SDS011;12935;50.782;6.074;2023-08-07T02:50:00;53.97;;;10.47;;
24857;SDS011;12935;50.782;6.074;2023-08-07T02:52:25;16.83;;;6.20;;
24857;SDS011;12935;50.782;6.074;2023-08-07T02:54:50;19.50;;;7.00;;
24857;SDS011;12935;50.782;6.074;2023-08-07T02:57:16;25.17;;;7.53;;
24857;SDS011;12935;50.782;6.074;2023-08-07T02:59:41;32.97;;;8.67;;
24857;SDS011;12935;50.782;6.074;2023-08-07T03:02:06;51.43;;;10.63;;
24857;SDS011;12935;50.782;6.074;2023-08-07T03:04:31;16.47;;;6.80;;
24857;SDS011;12935;50.782;6.074;2023-08-07T03:06:57;26.63;;;8.17;;
24857;SDS011;12935;50.782;6.074;2023-08-07T03:09:22;16.43;;;7.17;;
24857;SDS011;12935;50.782;6.074;2023-08-07T03:11:47;30.10;;;8.57;;
24857;SDS011;12935;50.782;6.074;2023-08-07T03:14:12;53.33;;;10.63;;
24857;SDS011;12935;50.782;6.074;2023-08-07T03:16:38;12.93;;;6.73;;
24857;SDS011;12935;50.782;6.074;2023-08-07T03:19:03;30.57;;;8.27;;
24857;SDS011;12935;50.782;6.074;2023-08-07T03:21:28;31.13;;;7.23;;
24857;SDS011;12935;50.782;6.074;2023-08-07T03:23:53;21.23;;;6.57;;
24857;SDS011;12935;50.782;6.074;2023-08-07T03:26:19;29.07;;;7.60;;
24857;SDS011;12935;50.782;6.074;2023-08-07T03:28:44;18.13;;;6.03;;
24857;SDS011;12935;50.782;6.074;2023-08-07T03:31:11;43.03;;;10.70;;
24857;SDS011;12935;50.782;6.074;2023-08-07T03:33:37;16.80;;;6.13;;
24857;SDS011;12935;50.782;6.074;2023-08-07T03:36:02;38.17;;;9.93;;
24857;SDS011;12935;50.782;6.074;2023-08-07T03:38:28;16.07;;;5.90;;
24857;SDS011;12935;50.782;6.074;2023-08-07T03:40:53;22.27;;;6.97;;
24857;SDS011;12935;50.782;6.074;2023-08-07T03:43:18;21.77;;;7.03;;
24857;SDS011;12935;50.782;6.074;2023-08-07T03:45:43;32.90;;;8.33;;
24857;SDS011;12935;50.782;6.074;2023-08-07T03:48:09;58.97;;;11.67;;
24857;SDS011;12935;50.782;6.074;2023-08-07T03:50:34;20.47;;;7.50;;
24857;SDS011;12935;50.782;6.074;2023-08-07T03:53:02;41.40;;;9.10;;
24857;SDS011;12935;50.782;6.074;2023-08-07T03:55:27;24.63;;;7.60;;
24857;SDS011;12935;50.782;6.074;2023-08-07T03:57:52;16.40;;;8.93;;
24857;SDS011;12935;50.782;6.074;2023-08-07T04:00:18;33.30;;;7.83;;
24857;SDS011;12935;50.782;6.074;2023-08-07T04:02:43;12.13;;;6.07;;
24857;SDS011;12935;50.782;6.074;2023-08-07T04:05:09;53.97;;;11.03;;
24857;SDS011;12935;50.782;6.074;2023-08-07T04:07:34;22.63;;;6.80;;
24857;SDS011;12935;50.782;6.074;2023-08-07T04:09:59;32.37;;;8.43;;
24857;SDS011;12935;50.782;6.074;2023-08-07T04:12:25;17.70;;;6.20;;
24857;SDS011;12935;50.782;6.074;2023-08-07T04:14:50;41.47;;;8.80;;
24857;SDS011;12935;50.782;6.074;2023-08-07T04:17:16;19.07;;;6.20;;
24857;SDS011;12935;50.782;6.074;2023-08-07T04:19:42;27.77;;;7.37;;
24857;SDS011;12935;50.782;6.074;2023-08-07T04:22:07;21.10;;;6.50;;
24857;SDS011;12935;50.782;6.074;2023-08-07T04:24:33;21.57;;;7.73;;
24857;SDS011;12935;50.782;6.074;2023-08-07T04:26:58;38.63;;;7.50;;
24857;SDS011;12935;50.782;6.074;2023-08-07T04:29:24;15.53;;;6.27;;
24857;SDS011;12935;50.782;6.074;2023-08-07T04:31:49;20.27;;;6.73;;
24857;SDS011;12935;50.782;6.074;2023-08-07T04:34:14;33.40;;;8.10;;
24857;SDS011;12935;50.782;6.074;2023-08-07T04:36:40;18.83;;;7.57;;
24857;SDS011;12935;50.782;6.074;2023-08-07T04:39:05;42.87;;;9.20;;
24857;SDS011;12935;50.782;6.074;2023-08-07T04:41:30;17.03;;;6.23;;
24857;SDS011;12935;50.782;6.074;2023-08-07T04:43:56;19.27;;;6.63;;
24857;SDS011;12935;50.782;6.074;2023-08-07T04:46:21;26.90;;;7.50;;
24857;SDS011;12935;50.782;6.074;2023-08-07T04:48:46;29.60;;;7.60;;
24857;SDS011;12935;50.782;6.074;2023-08-07T04:51:12;50.57;;;10.40;;
24857;SDS011;12935;50.782;6.074;2023-08-07T04:53:38;17.90;;;7.00;;
24857;SDS011;12935;50.782;6.074;2023-08-07T04:56:03;29.67;;;7.57;;
24857;SDS011;12935;50.782;6.074;2023-08-07T04:58:29;14.43;;;7.13;;
24857;SDS011;12935;50.782;6.074;2023-08-07T05:00:54;26.90;;;7.43;;
24857;SDS011;12935;50.782;6.074;2023-08-07T05:03:23;25.53;;;7.10;;
24857;SDS011;12935;50.782;6.074;2023-08-07T05:05:49;15.27;;;6.10;;
24857;SDS011;12935;50.782;6.074;2023-08-07T05:08:14;44.97;;;9.53;;
24857;SDS011;12935;50.782;6.074;2023-08-07T05:10:40;17.93;;;6.73;;
24857;SDS011;12935;50.782;6.074;2023-08-07T05:13:05;56.20;;;9.67;;
24857;SDS011;12935;50.782;6.074;2023-08-07T05:15:30;24.20;;;7.13;;
24857;SDS011;12935;50.782;6.074;2023-08-07T05:17:56;17.50;;;7.00;;
24857;SDS011;12935;50.782;6.074;2023-08-07T05:20:21;22.80;;;6.90;;
24857;SDS011;12935;50.782;6.074;2023-08-07T05:22:47;43.90;;;10.30;;
24857;SDS011;12935;50.782;6.074;2023-08-07T05:25:12;53.23;;;11.17;;
24857;SDS011;12935;50.782;6.074;2023-08-07T05:27:41;22.87;;;7.20;;
24857;SDS011;12935;50.782;6.074;2023-08-07T05:30:07;30.70;;;7.50;;
24857;SDS011;12935;50.782;6.074;2023-08-07T05:32:33;18.27;;;6.60;;
24857;SDS011;12935;50.782;6.074;2023-08-07T05:34:58;40.70;;;9.63;;
24857;SDS011;12935;50.782;6.074;2023-08-07T05:37:24;21.53;;;6.93;;
24857;SDS011;12935;50.782;6.074;2023-08-07T05:39:49;53.47;;;10.90;;
24857;SDS011;12935;50.782;6.074;2023-08-07T05:42:14;56.07;;;11.20;;
24857;SDS011;12935;50.782;6.074;2023-08-07T05:44:40;24.73;;;7.90;;
24857;SDS011;12935;50.782;6.074;2023-08-07T05:47:05;23.20;;;7.10;;
24857;SDS011;12935;50.782;6.074;2023-08-07T05:49:31;22.73;;;7.10;;
24857;SDS011;12935;50.782;6.074;2023-08-07T05:51:57;19.50;;;6.03;;
24857;SDS011;12935;50.782;6.074;2023-08-07T05:54:22;20.47;;;6.37;;
24857;SDS011;12935;50.782;6.074;2023-08-07T05:56:47;27.53;;;7.47;;
24857;SDS011;12935;50.782;6.074;2023-08-07T05:59:12;48.67;;;10.93;;
24857;SDS011;12935;50.782;6.074;2023-08-07T06:01:38;23.27;;;6.83;;
24857;SDS011;12935;50.782;6.074;2023-08-07T06:04:03;31.73;;;7.87;;
24857;SDS011;12935;50.782;6.074;2023-08-07T06:06:28;18.50;;;7.57;;
24857;SDS011;12935;50.782;6.074;2023-08-07T06:08:54;25.43;;;7.40;;
24857;SDS011;12935;50.782;6.074;2023-08-07T06:11:20;34.53;;;8.47;;
24857;SDS011;12935;50.782;6.074;2023-08-07T06:13:45;24.40;;;7.53;;
24857;SDS011;12935;50.782;6.074;2023-08-07T06:16:11;24.87;;;7.80;;
24857;SDS011;12935;50.782;6.074;2023-08-07T06:18:36;19.50;;;6.50;;
24857;SDS011;12935;50.782;6.074;2023-08-07T06:21:02;42.63;;;9.20;;
24857;SDS011;12935;50.782;6.074;2023-08-07T06:23:28;24.10;;;7.10;;
24857;SDS011;12935;50.782;6.074;2023-08-07T06:25:54;19.67;;;6.77;;
24857;SDS011;12935;50.782;6.074;2023-08-07T06:28:19;22.77;;;7.40;;
24857;SDS011;12935;50.782;6.074;2023-08-07T06:30:44;23.60;;;6.73;;
24857;SDS011;12935;50.782;6.074;2023-08-07T06:33:10;50.40;;;9.83;;
24857;SDS011;12935;50.782;6.074;2023-08-07T06:35:38;18.00;;;6.73;;
24857;SDS011;12935;50.782;6.074;2023-08-07T06:38:04;31.70;;;9.17;;
24857;SDS011;12935;50.782;6.074;2023-08-07T06:40:30;20.77;;;7.27;;
24857;SDS011;12935;50.782;6.074;2023-08-07T06:42:55;12.83;;;5.70;;
24857;SDS011;12935;50.782;6.074;2023-08-07T06:45:20;21.77;;;7.50;;
24857;SDS011;12935;50.782;6.074;2023-08-07T06:47:46;21.37;;;6.73;;
24857;SDS011;12935;50.782;6.074;2023-08-07T06:50:11;46.07;;;9.50;;
24857;SDS011;12935;50.782;6.074;2023-08-07T06:52:37;19.93;;;6.87;;
24857;SDS011;12935;50.782;6.074;2023-08-07T06:55:03;33.37;;;8.87;;
24857;SDS011;12935;50.782;6.074;2023-08-07T06:57:28;18.73;;;6.10;;
24857;SDS011;12935;50.782;6.074;2023-08-07T06:59:54;45.43;;;10.07;;
24857;SDS011;12935;50.782;6.074;2023-08-07T07:02:19;21.97;;;7.20;;
24857;SDS011;12935;50.782;6.074;2023-08-07T07:04:44;20.10;;;7.73;;
24857;SDS011;12935;50.782;6.074;2023-08-07T07:07:09;50.37;;;10.33;;
24857;SDS011;12935;50.782;6.074;2023-08-07T07:09:35;25.43;;;7.33;;
24857;SDS011;12935;50.782;6.074;2023-08-07T07:12:00;39.17;;;9.70;;
24857;SDS011;12935;50.782;6.074;2023-08-07T07:14:25;20.63;;;7.37;;
24857;SDS011;12935;50.782;6.074;2023-08-07T07:16:51;17.67;;;6.57;;
24857;SDS011;12935;50.782;6.074;2023-08-07T07:19:16;17.47;;;6.60;;
24857;SDS011;12935;50.782;6.074;2023-08-07T07:21:41;20.90;;;7.40;;
24857;SDS011;12935;50.782;6.074;2023-08-07T07:24:06;55.17;;;11.50;;
24857;SDS011;12935;50.782;6.074;2023-08-07T07:26:32;27.17;;;7.83;;
24857;SDS011;12935;50.782;6.074;2023-08-07T07:28:57;25.23;;;8.47;;
24857;SDS011;12935;50.782;6.074;2023-08-07T07:31:23;19.87;;;7.47;;
24857;SDS011;12935;50.782;6.074;2023-08-07T07:33:48;21.37;;;7.20;;
24857;SDS011;12935;50.782;6.074;2023-08-07T07:36:16;14.30;;;7.00;;
24857;SDS011;12935;50.782;6.074;2023-08-07T07:38:44;23.77;;;7.70;;
24857;SDS011;12935;50.782;6.074;2023-08-07T07:41:10;29.40;;;9.00;;
24857;SDS011;12935;50.782;6.074;2023-08-07T07:43:36;20.30;;;7.80;;
24857;SDS011;12935;50.782;6.074;2023-08-07T07:46:02;54.97;;;11.60;;
24857;SDS011;12935;50.782;6.074;2023-08-07T07:48:28;48.07;;;11.23;;
24857;SDS011;12935;50.782;6.074;2023-08-07T07:51:00;19.83;;;7.40;;
24857;SDS011;12935;50.782;6.074;2023-08-07T07:53:27;16.90;;;7.10;;
24857;SDS011;12935;50.782;6.074;2023-08-07T07:55:52;16.93;;;7.13;;
24857;SDS011;12935;50.782;6.074;2023-08-07T07:58:19;28.13;;;8.67;;
24857;SDS011;12935;50.782;6.074;2023-08-07T08:00:45;21.03;;;8.27;;
24857;SDS011;12935;50.782;6.074;2023-08-07T08:03:10;54.57;;;12.33;;
24857;SDS011;12935;50.782;6.074;2023-08-07T08:05:37;33.27;;;9.97;;
24857;SDS011;12935;50.782;6.074;2023-08-07T08:08:02;38.20;;;9.70;;
24857;SDS011;12935;50.782;6.074;2023-08-07T08:10:28;21.77;;;8.70;;
24857;SDS011;12935;50.782;6.074;2023-08-07T08:12:56;37.23;;;10.73;;
24857;SDS011;12935;50.782;6.074;2023-08-07T08:15:22;32.47;;;9.33;;
24857;SDS011;12935;50.782;6.074;2023-08-07T08:17:47;26.40;;;9.07;;
24857;SDS011;12935;50.782;6.074;2023-08-07T08:20:13;49.67;;;12.27;;
24857;SDS011;12935;50.782;6.074;2023-08-07T08:22:43;19.60;;;8.63;;
24857;SDS011;12935;50.782;6.074;2023-08-07T08:25:09;51.17;;;12.60;;
24857;SDS011;12935;50.782;6.074;2023-08-07T08:27:34;21.33;;;8.80;;
24857;SDS011;12935;50.782;6.074;2023-08-07T08:30:00;32.20;;;9.97;;
24857;SDS011;12935;50.782;6.074;2023-08-07T08:32:26;19.43;;;8.80;;
24857;SDS011;12935;50.782;6.074;2023-08-07T08:34:51;46.00;;;10.10;;
24857;SDS011;12935;50.782;6.074;2023-08-07T08:37:17;23.00;;;10.23;;
24857;SDS011;12935;50.782;6.074;2023-08-07T08:39:42;38.77;;;11.23;;
24857;SDS011;12935;50.782;6.074;2023-08-07T08:42:08;48.63;;;13.10;;
24857;SDS011;12935;50.782;6.074;2023-08-07T08:44:36;26.33;;;9.80;;
24857;SDS011;12935;50.782;6.074;2023-08-07T08:47:04;32.63;;;11.13;;
24857;SDS011;12935;50.782;6.074;2023-08-07T08:49:31;18.87;;;9.73;;
24857;SDS011;12935;50.782;6.074;2023-08-07T08:52:00;50.13;;;11.57;;
24857;SDS011;12935;50.782;6.074;2023-08-07T08:54:26;24.57;;;10.10;;
24857;SDS011;12935;50.782;6.074;2023-08-07T08:56:51;25.63;;;10.50;;
24857;SDS011;12935;50.782;6.074;2023-08-07T08:59:17;28.93;;;10.07;;
24857;SDS011;12935;50.782;6.074;2023-08-07T09:01:44;25.13;;;10.07;;
24857;SDS011;12935;50.782;6.074;2023-08-07T09:04:11;44.40;;;12.43;;
24857;SDS011;12935;50.782;6.074;2023-08-07T09:06:37;13.97;;;9.03;;
24857;SDS011;12935;50.782;6.074;2023-08-07T09:09:02;36.20;;;11.03;;
24857;SDS011;12935;50.782;6.074;2023-08-07T09:11:28;22.27;;;9.83;;
24857;SDS011;12935;50.782;6.074;2023-08-07T09:13:54;27.70;;;10.13;;
24857;SDS011;12935;50.782;6.074;2023-08-07T09:16:21;33.40;;;11.20;;
24857;SDS011;12935;50.782;6.074;2023-08-07T09:18:50;16.53;;;10.00;;
24857;SDS011;12935;50.782;6.074;2023-08-07T09:21:16;24.40;;;9.80;;
24857;SDS011;12935;50.782;6.074;2023-08-07T09:23:42;32.80;;;11.37;;
24857;SDS011;12935;50.782;6.074;2023-08-07T09:26:08;50.97;;;13.40;;
24857;SDS011;12935;50.782;6.074;2023-08-07T09:28:35;15.37;;;8.37;;
24857;SDS011;12935;50.782;6.074;2023-08-07T09:31:01;43.60;;;12.30;;
24857;SDS011;12935;50.782;6.074;2023-08-07T09:33:29;17.10;;;8.73;;
24857;SDS011;12935;50.782;6.074;2023-08-07T09:35:59;18.63;;;9.03;;
24857;SDS011;12935;50.782;6.074;2023-08-07T09:38:31;28.57;;;10.57;;
24857;SDS011;12935;50.782;6.074;2023-08-07T09:40:58;44.70;;;13.13;;
24857;SDS011;12935;50.782;6.074;2023-08-07T09:43:24;15.90;;;9.40;;
24857;SDS011;12935;50.782;6.074;2023-08-07T09:45:50;51.07;;;13.70;;
24857;SDS011;12935;50.782;6.074;2023-08-07T09:48:21;31.93;;;11.40;;
24857;SDS011;12935;50.782;6.074;2023-08-07T09:50:48;19.27;;;9.80;;
24857;SDS011;12935;50.782;6.074;2023-08-07T09:53:14;48.97;;;13.70;;
24857;SDS011;12935;50.782;6.074;2023-08-07T09:55:39;22.00;;;9.87;;
24857;SDS011;12935;50.782;6.074;2023-08-07T09:58:05;45.30;;;11.63;;
24857;SDS011;12935;50.782;6.074;2023-08-07T10:00:33;21.50;;;10.40;;
24857;SDS011;12935;50.782;6.074;2023-08-07T10:03:00;26.97;;;11.20;;
24857;SDS011;12935;50.782;6.074;2023-08-07T10:05:27;23.80;;;11.00;;
24857;SDS011;12935;50.782;6.074;2023-08-07T10:07:52;20.70;;;11.50;;
24857;SDS011;12935;50.782;6.074;2023-08-07T10:10:19;22.60;;;11.67;;
24857;SDS011;12935;50.782;6.074;2023-08-07T10:12:45;61.27;;;13.77;;
24857;SDS011;12935;50.782;6.074;2023-08-07T10:15:12;46.10;;;13.70;;
24857;SDS011;12935;50.782;6.074;2023-08-07T10:17:39;23.30;;;10.47;;
24857;SDS011;12935;50.782;6.074;2023-08-07T10:20:04;66.50;;;15.40;;
24857;SDS011;12935;50.782;6.074;2023-08-07T10:22:32;32.03;;;10.90;;
24857;SDS011;12935;50.782;6.074;2023-08-07T10:25:01;36.00;;;12.90;;
24857;SDS011;12935;50.782;6.074;2023-08-07T10:27:27;22.30;;;10.90;;
24857;SDS011;12935;50.782;6.074;2023-08-07T10:29:55;38.80;;;13.23;;
24857;SDS011;12935;50.782;6.074;2023-08-07T10:32:23;20.60;;;10.63;;
24857;SDS011;12935;50.782;6.074;2023-08-07T10:34:50;40.33;;;13.47;;
24857;SDS011;12935;50.782;6.074;2023-08-07T10:40:10;48.47;;;16.10;;
24857;SDS011;12935;50.782;6.074;2023-08-07T10:45:36;29.13;;;14.50;;
24857;SDS011;12935;50.782;6.074;2023-08-07T10:50:30;22.47;;;13.57;;
24857;SDS011;12935;50.782;6.074;2023-08-07T10:52:59;25.03;;;12.90;;
24857;SDS011;12935;50.782;6.074;2023-08-07T10:55:25;20.60;;;13.00;;
24857;SDS011;12935;50.782;6.074;2023-08-07T10:57:50;25.53;;;13.73;;
24857;SDS011;12935;50.782;6.074;2023-08-07T11:00:16;25.53;;;13.00;;
24857;SDS011;12935;50.782;6.074;2023-08-07T11:02:42;27.57;;;13.20;;
24857;SDS011;12935;50.782;6.074;2023-08-07T11:05:07;55.70;;;16.70;;
24857;SDS011;12935;50.782;6.074;2023-08-07T11:07:33;30.43;;;14.43;;
24857;SDS011;12935;50.782;6.074;2023-08-07T11:09:59;46.40;;;16.20;;
24857;SDS011;12935;50.782;6.074;2023-08-07T11:12:25;26.73;;;13.30;;
24857;SDS011;12935;50.782;6.074;2023-08-07T11:14:51;19.30;;;12.37;;
24857;SDS011;12935;50.782;6.074;2023-08-07T11:17:17;29.50;;;12.80;;
24857;SDS011;12935;50.782;6.074;2023-08-07T11:19:43;46.00;;;16.77;;
24857;SDS011;12935;50.782;6.074;2023-08-07T11:22:08;53.00;;;16.70;;
24857;SDS011;12935;50.782;6.074;2023-08-07T11:24:34;27.13;;;13.73;;
24857;SDS011;12935;50.782;6.074;2023-08-07T11:27:00;31.70;;;14.13;;
24857;SDS011;12935;50.782;6.074;2023-08-07T11:29:25;19.93;;;12.23;;
24857;SDS011;12935;50.782;6.074;2023-08-07T11:31:51;29.77;;;14.80;;
24857;SDS011;12935;50.782;6.074;2023-08-07T11:34:17;34.53;;;14.70;;
24857;SDS011;12935;50.782;6.074;2023-08-07T11:36:43;28.00;;;13.97;;
24857;SDS011;12935;50.782;6.074;2023-08-07T11:39:09;51.90;;;17.23;;
24857;SDS011;12935;50.782;6.074;2023-08-07T11:41:34;28.43;;;14.80;;
24857;SDS011;12935;50.782;6.074;2023-08-07T11:44:00;43.37;;;17.07;;
24857;SDS011;12935;50.782;6.074;2023-08-07T11:46:25;20.87;;;14.20;;
24857;SDS011;12935;50.782;6.074;2023-08-07T11:48:50;20.60;;;14.70;;
24857;SDS011;12935;50.782;6.074;2023-08-07T11:51:17;22.60;;;15.83;;
24857;SDS011;12935;50.782;6.074;2023-08-07T11:53:44;26.00;;;14.47;;
24857;SDS011;12935;50.782;6.074;2023-08-07T11:56:11;53.10;;;18.00;;
24857;SDS011;12935;50.782;6.074;2023-08-07T12:01:11;52.93;;;17.57;;
24857;SDS011;12935;50.782;6.074;2023-08-07T12:03:38;18.93;;;12.77;;
24857;SDS011;12935;50.782;6.074;2023-08-07T12:06:06;63.50;;;18.47;;
24857;SDS011;12935;50.782;6.074;2023-08-07T12:08:36;25.03;;;12.87;;
24857;SDS011;12935;50.782;6.074;2023-08-07T12:11:04;46.40;;;16.13;;
24857;SDS011;12935;50.782;6.074;2023-08-07T12:13:30;30.03;;;13.97;;
24857;SDS011;12935;50.782;6.074;2023-08-07T12:15:58;23.23;;;13.33;;
24857;SDS011;12935;50.782;6.074;2023-08-07T12:18:24;24.93;;;14.33;;
24857;SDS011;12935;50.782;6.074;2023-08-07T12:20:51;19.37;;;14.67;;
24857;SDS011;12935;50.782;6.074;2023-08-07T12:23:17;27.40;;;14.60;;
24857;SDS011;12935;50.782;6.074;2023-08-07T12:25:45;23.07;;;15.23;;
24857;SDS011;12935;50.782;6.074;2023-08-07T12:28:11;64.77;;;19.10;;
24857;SDS011;12935;50.782;6.074;2023-08-07T12:30:36;19.47;;;14.20;;
24857;SDS011;12935;50.782;6.074;2023-08-07T12:33:03;35.43;;;15.33;;
24857;SDS011;12935;50.782;6.074;2023-08-07T12:35:33;25.03;;;14.20;;
24857;SDS011;12935;50.782;6.074;2023-08-07T12:37:59;33.67;;;14.90;;
24857;SDS011;12935;50.782;6.074;2023-08-07T12:40:25;24.40;;;14.77;;
24857;SDS011;12935;50.782;6.074;2023-08-07T12:42:51;29.87;;;14.60;;
24857;SDS011;12935;50.782;6.074;2023-08-07T12:45:16;30.97;;;14.33;;
24857;SDS011;12935;50.782;6.074;2023-08-07T12:47:43;39.20;;;16.03;;
24857;SDS011;12935;50.782;6.074;2023-08-07T12:50:09;46.40;;;17.83;;
24857;SDS011;12935;50.782;6.074;2023-08-07T12:52:35;27.33;;;15.63;;
24857;SDS011;12935;50.782;6.074;2023-08-07T12:55:00;31.33;;;15.80;;
24857;SDS011;12935;50.782;6.074;2023-08-07T12:57:25;26.53;;;15.13;;
24857;SDS011;12935;50.782;6.074;2023-08-07T12:59:51;73.83;;;21.60;;
24857;SDS011;12935;50.782;6.074;2023-08-07T13:02:16;25.50;;;16.43;;
24857;SDS011;12935;50.782;6.074;2023-08-07T13:04:41;21.27;;;15.40;;
24857;SDS011;12935;50.782;6.074;2023-08-07T13:07:07;57.47;;;19.67;;
24857;SDS011;12935;50.782;6.074;2023-08-07T13:09:32;27.13;;;15.47;;
24857;SDS011;12935;50.782;6.074;2023-08-07T13:11:58;64.40;;;20.47;;
24857;SDS011;12935;50.782;6.074;2023-08-07T13:14:23;19.40;;;14.80;;
24857;SDS011;12935;50.782;6.074;2023-08-07T13:16:48;28.07;;;17.10;;
24857;SDS011;12935;50.782;6.074;2023-08-07T13:19:14;55.60;;;19.23;;
24857;SDS011;12935;50.782;6.074;2023-08-07T13:21:40;23.30;;;15.20;;
24857;SDS011;12935;50.782;6.074;2023-08-07T13:24:05;49.53;;;19.37;;
24857;SDS011;12935;50.782;6.074;2023-08-07T13:26:30;28.33;;;17.30;;
24857;SDS011;12935;50.782;6.074;2023-08-07T13:28:56;19.27;;;17.40;;
24857;SDS011;12935;50.782;6.074;2023-08-07T13:31:21;34.27;;;18.53;;
24857;SDS011;12935;50.782;6.074;2023-08-07T13:33:47;19.37;;;17.37;;
24857;SDS011;12935;50.782;6.074;2023-08-07T13:36:12;54.53;;;22.60;;
24857;SDS011;12935;50.782;6.074;2023-08-07T13:38:37;18.27;;;16.47;;
24857;SDS011;12935;50.782;6.074;2023-08-07T13:41:03;28.33;;;16.80;;
24857;SDS011;12935;50.782;6.074;2023-08-07T13:43:28;28.03;;;18.00;;
24857;SDS011;12935;50.782;6.074;2023-08-07T13:45:53;45.17;;;20.23;;
24857;SDS011;12935;50.782;6.074;2023-08-07T13:48:19;18.70;;;16.13;;
24857;SDS011;12935;50.782;6.074;2023-08-07T13:50:45;20.90;;;16.03;;
24857;SDS011;12935;50.782;6.074;2023-08-07T13:53:10;50.30;;;21.07;;
24857;SDS011;12935;50.782;6.074;2023-08-07T13:55:35;25.03;;;17.00;;
24857;SDS011;12935;50.782;6.074;2023-08-07T13:58:01;37.87;;;19.07;;
24857;SDS011;12935;50.782;6.074;2023-08-07T14:00:26;18.77;;;15.17;;
24857;SDS011;12935;50.782;6.074;2023-08-07T14:02:51;19.10;;;17.10;;
24857;SDS011;12935;50.782;6.074;2023-08-07T14:05:17;26.07;;;17.37;;
24857;SDS011;12935;50.782;6.074;2023-08-07T14:07:42;33.77;;;18.60;;
24857;SDS011;12935;50.782;6.074;2023-08-07T14:10:07;42.10;;;20.40;;
24857;SDS011;12935;50.782;6.074;2023-08-07T14:12:33;22.43;;;19.00;;
24857;SDS011;12935;50.782;6.074;2023-08-07T14:14:58;21.97;;;18.40;;
24857;SDS011;12935;50.782;6.074;2023-08-07T14:17:23;19.83;;;17.93;;
24857;SDS011;12935;50.782;6.074;2023-08-07T14:19:48;61.13;;;21.37;;
24857;SDS011;12935;50.782;6.074;2023-08-07T14:22:14;43.33;;;20.57;;
24857;SDS011;12935;50.782;6.074;2023-08-07T14:24:39;17.83;;;15.87;;
24857;SDS011;12935;50.782;6.074;2023-08-07T14:27:04;57.07;;;21.23;;
24857;SDS011;12935;50.782;6.074;2023-08-07T14:29:30;26.70;;;18.27;;
24857;SDS011;12935;50.782;6.074;2023-08-07T14:31:55;25.53;;;17.07;;
24857;SDS011;12935;50.782;6.074;2023-08-07T14:34:20;31.00;;;17.27;;
24857;SDS011;12935;50.782;6.074;2023-08-07T14:36:45;25.20;;;16.73;;